San Lorenzo de El Escorial, Spain
Current Conditions -  °F | °C
As of 5:00 PM on Thursday 29 Jan 2015 (Local Time) from LEVS Reporting Station
Broken Clouds Broken Clouds  
Wind Chill: 11°   Ceiling: 3500
Heat Index: 11°   Visibility: 6mi
Dew Point:   Wind: 12mph
Humidity: 67%   Direction: 220°SW
Pressure: 29.85"   Gusts: 24mph
Location:  40.59°N, 4.15°W
Report Text: LEVS 291600Z 22010G21KT 9999 BKN035 11/05 Q1011
Loading
Personal Weather Stations






























Interactive Weather Map New forecast layout! Learn more

10-Day Weather Forecast

Advertisements
Track Severe Weather on mobile